Maclean, Virginia
Current Conditions -  °F | °C
As of 8:52 AM on Monday 24 Nov 2014 (Local Time) from KIAD Reporting Station
Broken Clouds Broken Clouds  
Wind Chill: 61°   Ceiling: 2800
Heat Index: 61°   Visibility: 10mi
Dew Point: 58°   Wind: 9mph
Humidity: 90%   Direction: 210°SSW
Pressure: 29.69"   Gusts: NA
Location:  38.9512°N, 77.2307°W
Report Text: KIAD 241352Z 21008KT 10SM SCT022 BKN028 16/14 A2969 RMK AO2 SLP051 T01610144
Loading
Personal Weather Stations






























Interactive Weather Map New forecast layout! Learn more

10-Day Weather Forecast

Advertisements
Track Severe Weather on mobile